Terminal Aerodrome Forecast
Issued by NWS

Home | Current Version | Previous Version | Text Only | Print | Product List | Glossary On
Versions: 1 2 3 4 5 6 7 8 9 10 11 12 13 14 15 16 17 18
372
FTAK31 PAJN 280534
TAFAPG
TAF
PAPG 280534Z 2806/2906 10005KT P6SM BKN045 OVC060
      TEMPO 2809/2812 BKN025 OVC045
     FM281200 00000KT P6SM BKN015 OVC040
     FM281700 05004KT P6SM SCT025 OVC050
     FM290200 VRB02KT P6SM FEW025 OVC050
      AMD LTD TO CLD VIS AND WIND 2806/2815=

USA.gov is the U.S. government's official web portal to all federal, state and local government web resources and services.